Route Details

Aircraft Information
Group: North America Light
Types: B738, B752, B762
Route Data
Distance: 248nm
Duration: 1h 00m
Origin METAR: MMGL 160045Z 26013KT 8SM SCT020CB BKN090 BKN300 22/16 A3007 RMK 8/331 HZY/DSNT PCPN S
Dest. METAR: MMMX 160057Z 12010KT 4SM -RA BKN015CB OVC080 16/14 A3027 NOSIG RMK 60205 8/96/ HZY
Freight Data
(for Aug 16, 2022)
Load Factor:
49%
Manifested Cargo: 39,647lbs
Financial History
Total Freight: 835,194lbs
Average Load: 0lbs/flt
Fuel Used: 104,546lbs
Avg. Fuel Used: 0lbs/flt
Fuel Expense: $61,334
Avg. Fuel Expense: $0
Avg. Fuel Cost: $0/lbs
Total Gross Income: $1,828,004
Pilot Pay: $2,270
Total Expenses: $229,190
Total Revenue: $1,534,481
Average Revenue: $0

Capitol Logistics 767




MMGL
Don Miguel Hidalgo y Costilla International Airport
Guadalajara, MX
MMMX
Benito Juárez International Airport
Mexico City, MX

Activity Log

Date Flight Route Aircraft Duration
07/15/2022 CPX767 EMIRI1A EMIRI UT119 ESPOS ESPOS2A B738 1h 13m
06/22/2022 CPX3123 EMIR1A EMIRI UT119 ESPOS ESPO2A B738 1h 12m
06/18/2022 CPX3123 EMIR1A EMIRI UT119 ESPOS ESPO1A B738 1h 18m
06/11/2022 CPX3123 EMIR1A EMIRI UT119 ESPOS ESPO1A B744 1h 11m
05/29/2022 CPX3123 EMIR1A EMIRI UT119 ESPOS ESPO1A B738 1h 14m
01/31/2022 CPX3123 EMIR1A EMIRI UT119 ESPOS ESPO1A B762 1h 12m
12/15/2019 CPX215 GDL4A GDL UJ14 QET UJ5 TIKEB TIKEB1A B763 1h 10m
08/14/2019 CPX215 GDL4A GDL UJ14 QET UJ5 TIKEB TIKEB1A B763 1h 04m
08/13/2019 CPX215 GDL2C GDL UJ14 QET UJ33 TIKEB TIKE1A B763 0h 59m
12/13/2018 CPX217 GDL4A GDL UJ14 QET UJ5 TIKEB TIKEB1A B763 0h 46m